Aérodrome :
LOGIN :

S'inscrire | Disclaimer

   EN    FR    IT 

 










Légende :    VFR   VFR Marginal   IFR   IFR Intensif   IFR Très Intensif
Visi : 
Plafond : 
>= 8 km
>= 3000ft
5 à 8 km
1000 à 3000 ft
1500m à 5 km
500 à 1000 ft
800 à 1500m
200 à 500 ft
< 800m
< 200 ft
Symboles :   Orages  Brouillard  Fortes neiges  Fortes précipitations  Vent > 20 kt
SIGMETs :   Divers  Orages  Givrage  Turbulence  Onde Orograph.  Cendres Volcan.







- Altitude de l'aérodrome : 458 ft
- Voir les cartes d'approche


LFSI - St-Dizier

DERNIER METAR :
  • 290530Z AUTO 08003KT 6000 NSC 03/03 Q1018

METARs EXPIRÉS :
  • 290500Z AUTO 11003KT 3900 BR NSC 02/02 Q1018
  • 290430Z AUTO 09002KT 4500 BR NSC 03/02 Q1018
  • 290400Z AUTO 10003KT 3700 BR NSC 03/02 Q1018
  • 290330Z AUTO 11003KT 2000 0900 R11/P2000 BCFG NSC 03/02 Q1018
  • 290300Z AUTO VRB02KT 4100 BR NSC 04/03 Q1018

TAF TAF LFSI
Valide du 29 à 03h jusqu'au 30 à 03h UTC


290200Z 2903/3003 VRB02KT 5000 BR NSC
PROB40
TEMPO 2903/2907 0800 FG
BECMG 2907/2909 CAVOK
Pas de NOTAMs connus pour ce terrain.



MET'MAP, la Météo Aéronautique d'un coup d'oeil ! - Copyright ORBIFLY Décembre 2007 - Disclaimer

ORBIFLY MET'MAP TEAM :

Programmation & Développement : Alexandra Zaïnal
Conception & Développement : Baudouin d'Aumeries
Co-Programmation & Développement : Marc-Olivier Méhu
Soutien technique & logistique : Manuel Goepfert

Contact : metmap@orbifly.com




SOURCES & CREDITS :

   NOAA